createdAt,value
2022-10-22T00:01:20.284Z,12.36
2022-10-22T00:03:51.381Z,12.37
2022-10-22T00:06:22.151Z,12.40
2022-10-22T00:08:52.864Z,12.41
2022-10-22T00:11:23.727Z,12.38
2022-10-22T00:13:54.924Z,12.36
2022-10-22T00:16:25.870Z,12.36
2022-10-22T00:18:56.526Z,12.41
2022-10-22T00:21:29.103Z,12.49
2022-10-22T00:23:58.205Z,12.57
2022-10-22T00:26:29.216Z,12.60
2022-10-22T00:28:59.866Z,12.62
2022-10-22T00:31:30.589Z,12.64
2022-10-22T00:34:01.339Z,12.66
2022-10-22T00:36:32.067Z,12.66
2022-10-22T00:39:02.867Z,12.73
2022-10-22T00:41:33.663Z,12.80
2022-10-22T00:44:07.271Z,12.86
2022-10-22T00:46:37.934Z,12.90
2022-10-22T00:49:08.716Z,12.92
2022-10-22T00:51:39.455Z,12.94
2022-10-22T00:54:11.691Z,12.93
2022-10-22T00:56:42.546Z,12.91
2022-10-22T00:59:16.831Z,12.94
2022-10-22T01:01:48.078Z,12.97
2022-10-22T01:04:19.931Z,13.00
2022-10-22T01:06:50.828Z,13.03
2022-10-22T01:09:31.714Z,13.03
2022-10-22T01:12:11.026Z,13.01
2022-10-22T01:14:52.737Z,13.02
2022-10-22T01:17:33.297Z,13.05
2022-10-22T01:20:17.989Z,13.08
2022-10-22T01:22:57.709Z,13.10
2022-10-22T01:25:36.432Z,13.03
2022-10-22T01:28:20.618Z,13.07
2022-10-22T01:30:55.838Z,13.06
2022-10-22T01:33:28.278Z,13.02
2022-10-22T01:36:01.033Z,13.03
2022-10-22T01:38:32.819Z,13.01
2022-10-22T01:41:04.125Z,13.01
2022-10-22T01:43:35.019Z,13.00
2022-10-22T01:46:08.389Z,12.99
2022-10-22T01:48:52.599Z,12.96
2022-10-22T01:51:39.792Z,12.94
2022-10-22T01:54:22.176Z,12.93
2022-10-22T01:57:02.776Z,12.90
2022-10-22T01:59:43.957Z,12.81
2022-10-22T02:02:27.144Z,12.88
2022-10-22T02:05:02.199Z,12.89
2022-10-22T02:07:36.747Z,12.90
2022-10-22T02:10:10.558Z,12.90
2022-10-22T02:12:43.953Z,12.90
2022-10-22T02:15:16.705Z,12.90
2022-10-22T02:17:48.839Z,12.90
2022-10-22T02:20:23.921Z,12.92
2022-10-22T02:22:55.576Z,12.93
2022-10-22T02:25:30.644Z,12.94
2022-10-22T02:28:06.037Z,12.94
2022-10-22T02:30:40.042Z,12.98
2022-10-22T02:33:14.099Z,12.98
2022-10-22T02:35:46.243Z,12.97
2022-10-22T02:38:17.876Z,12.96
2022-10-22T02:40:49.208Z,13.01
2022-10-22T02:43:20.469Z,13.06
2022-10-22T02:45:51.128Z,13.11
2022-10-22T02:48:21.991Z,13.13
2022-10-22T02:50:52.984Z,13.14
2022-10-22T02:53:23.713Z,13.12
2022-10-22T02:55:54.475Z,13.08
2022-10-22T02:58:25.162Z,13.05
2022-10-22T03:00:56.125Z,13.04
2022-10-22T03:03:26.931Z,13.03
2022-10-22T03:05:57.621Z,13.02
2022-10-22T03:08:28.527Z,12.98
2022-10-22T03:10:59.356Z,12.96
2022-10-22T03:13:30.085Z,12.94
2022-10-22T03:16:00.927Z,12.92
2022-10-22T03:18:31.601Z,12.91
2022-10-22T03:21:10.986Z,12.93
2022-10-22T03:23:43.737Z,12.93
2022-10-22T03:26:15.762Z,12.93
2022-10-22T03:28:48.423Z,12.92
2022-10-22T03:31:19.301Z,12.90
2022-10-22T03:33:50.063Z,12.89
2022-10-22T03:36:20.896Z,12.88
2022-10-22T03:38:51.577Z,12.90
2022-10-22T03:41:22.393Z,12.89
2022-10-22T03:43:53.980Z,12.86
2022-10-22T03:46:24.812Z,12.83
2022-10-22T03:48:55.501Z,12.80
2022-10-22T03:51:27.402Z,12.78
2022-10-22T03:53:58.090Z,12.77
2022-10-22T03:56:28.913Z,12.77
2022-10-22T03:59:02.023Z,12.78
2022-10-22T04:01:33.723Z,12.78
2022-10-22T04:04:04.521Z,12.78
2022-10-22T04:06:35.210Z,12.78
2022-10-22T04:09:06.082Z,12.81
2022-10-22T04:11:36.824Z,12.84
2022-10-22T04:14:08.147Z,12.91
2022-10-22T04:16:40.180Z,12.96
2022-10-22T04:19:11.225Z,13.00
2022-10-22T04:21:42.395Z,13.02
2022-10-22T04:24:12.997Z,13.03
2022-10-22T04:26:43.999Z,13.05
2022-10-22T04:29:16.197Z,13.09
2022-10-22T04:31:47.357Z,13.12
2022-10-22T04:34:18.179Z,13.13
2022-10-22T04:36:48.868Z,13.14
2022-10-22T04:39:19.524Z,13.16
2022-10-22T04:41:50.136Z,13.17
2022-10-22T04:44:20.910Z,13.15
2022-10-22T04:46:51.868Z,13.11
2022-10-22T04:49:22.558Z,13.08
2022-10-22T04:51:54.626Z,13.08
2022-10-22T04:54:27.800Z,13.11
2022-10-22T04:57:02.950Z,13.12
2022-10-22T04:59:33.824Z,13.13
2022-10-22T05:02:04.509Z,13.12
2022-10-22T05:04:35.144Z,13.10
2022-10-22T05:07:05.871Z,13.06
2022-10-22T05:09:36.488Z,13.08
2022-10-22T05:12:07.981Z,13.07
2022-10-22T05:14:42.646Z,13.09
2022-10-22T05:17:15.645Z,13.13
2022-10-22T05:19:46.301Z,13.15
2022-10-22T05:22:16.949Z,13.14
2022-10-22T05:24:49.161Z,13.11
2022-10-22T05:29:55.545Z,13.08
2022-10-22T05:32:26.351Z,13.11
2022-10-22T05:34:57.063Z,13.13
2022-10-22T05:37:27.823Z,13.11
2022-10-22T05:40:12.337Z,13.10
2022-10-22T05:42:49.308Z,13.08
2022-10-22T05:45:20.171Z,13.07
2022-10-22T05:47:50.909Z,13.07
2022-10-22T05:50:21.536Z,13.09
2022-10-22T05:52:52.220Z,13.10
2022-10-22T05:55:23.033Z,13.11
2022-10-22T05:57:53.832Z,13.10
2022-10-22T06:00:24.796Z,13.10
2022-10-22T06:02:55.827Z,13.11
2022-10-22T06:05:26.439Z,13.10
2022-10-22T06:07:58.421Z,13.11
2022-10-22T06:10:29.416Z,13.12
2022-10-22T06:13:01.664Z,13.13
2022-10-22T06:15:32.480Z,13.13
2022-10-22T06:18:03.209Z,13.14
2022-10-22T06:20:34.859Z,13.13
2022-10-22T06:23:06.194Z,13.12
2022-10-22T06:25:36.914Z,13.12
2022-10-22T06:28:07.839Z,13.13
2022-10-22T06:30:42.960Z,13.13
2022-10-22T06:33:16.505Z,13.13
2022-10-22T06:35:48.658Z,13.14
2022-10-22T06:38:19.537Z,13.14
2022-10-22T06:40:50.183Z,13.14
2022-10-22T06:43:21.000Z,13.15
2022-10-22T06:45:51.814Z,13.16
2022-10-22T06:48:22.508Z,13.17
2022-10-22T06:50:53.259Z,13.14
2022-10-22T06:53:24.074Z,13.16
2022-10-22T06:55:54.858Z,13.18
2022-10-22T06:58:26.043Z,13.17
2022-10-22T07:01:05.442Z,13.16
2022-10-22T07:03:36.552Z,13.13
2022-10-22T07:06:09.364Z,13.13
2022-10-22T07:08:40.892Z,13.13
2022-10-22T07:11:13.146Z,13.12
2022-10-22T07:13:44.570Z,13.13
2022-10-22T07:16:16.027Z,13.13
2022-10-22T07:18:47.843Z,13.14
2022-10-22T07:21:20.386Z,13.16
2022-10-22T07:23:51.255Z,13.18
2022-10-22T07:26:22.057Z,13.20
2022-10-22T07:28:52.769Z,13.20
2022-10-22T07:31:23.760Z,13.18
2022-10-22T07:33:54.525Z,13.11
2022-10-22T07:36:25.245Z,13.04
2022-10-22T07:38:59.015Z,12.94
2022-10-22T07:41:31.014Z,12.93
2022-10-22T07:44:02.068Z,12.88
2022-10-22T07:46:32.824Z,12.82
2022-10-22T07:49:03.616Z,12.79
2022-10-22T07:51:34.284Z,12.74
2022-10-22T07:54:05.402Z,12.70
2022-10-22T07:56:36.043Z,12.68
2022-10-22T07:59:06.745Z,12.65
2022-10-22T08:01:37.430Z,12.62
2022-10-22T08:04:09.881Z,12.59
2022-10-22T08:06:44.451Z,12.55
2022-10-22T08:09:16.832Z,12.51
2022-10-22T08:11:47.595Z,12.48
2022-10-22T08:14:18.262Z,12.47
2022-10-22T08:16:49.189Z,12.44
2022-10-22T08:19:21.278Z,12.39
2022-10-22T08:21:52.032Z,12.37
2022-10-22T08:24:22.751Z,12.36
2022-10-22T08:26:54.379Z,12.35
2022-10-22T08:29:26.738Z,12.35
2022-10-22T08:31:57.481Z,12.36
2022-10-22T08:34:28.129Z,12.38
2022-10-22T08:36:58.852Z,12.42
2022-10-22T08:39:31.275Z,12.47
2022-10-22T08:42:14.931Z,12.52
2022-10-22T08:45:01.702Z,12.57
2022-10-22T08:47:49.178Z,12.61
2022-10-22T08:50:24.575Z,12.70
2022-10-22T08:52:59.981Z,12.80
2022-10-22T08:55:36.517Z,12.97
2022-10-22T08:58:18.857Z,13.08
2022-10-22T09:00:59.512Z,13.13
2022-10-22T09:03:42.580Z,13.18
2022-10-22T09:06:16.260Z,13.22
2022-10-22T09:08:48.726Z,13.27
2022-10-22T09:11:24.765Z,13.30
2022-10-22T09:13:57.337Z,13.32
2022-10-22T09:16:39.957Z,13.34
2022-10-22T09:19:25.035Z,13.37
2022-10-22T09:22:04.884Z,13.40
2022-10-22T09:24:39.876Z,13.43
2022-10-22T09:27:17.191Z,13.48
2022-10-22T09:29:49.223Z,13.52
2022-10-22T09:32:21.045Z,13.56
2022-10-22T09:34:56.657Z,13.62
2022-10-22T09:37:29.706Z,13.71
2022-10-22T09:40:05.251Z,13.82
2022-10-22T09:42:36.181Z,13.93
2022-10-22T09:45:08.414Z,14.05
2022-10-22T09:48:00.556Z,14.19
2022-10-22T09:50:44.164Z,14.39
2022-10-22T09:53:28.484Z,14.54
2022-10-22T09:56:02.040Z,14.67
2022-10-22T09:58:42.663Z,14.80
2022-10-22T10:01:21.141Z,14.97
2022-10-22T10:03:50.903Z,15.22
2022-10-22T10:06:23.789Z,15.37
2022-10-22T10:08:54.506Z,15.54
2022-10-22T10:11:33.695Z,15.77
2022-10-22T10:14:16.886Z,16.08
2022-10-22T10:16:58.324Z,16.32
2022-10-22T10:19:51.271Z,16.51
2022-10-22T10:22:39.079Z,16.63
2022-10-22T10:25:33.815Z,16.69
2022-10-22T10:28:17.774Z,16.73
2022-10-22T10:30:56.072Z,16.75
2022-10-22T10:33:42.266Z,16.75
2022-10-22T10:36:18.281Z,16.80
2022-10-22T10:38:58.062Z,16.80
2022-10-22T10:41:38.699Z,16.77
2022-10-22T10:44:36.075Z,16.85
2022-10-22T10:47:19.682Z,17.06
2022-10-22T10:49:53.532Z,17.17
2022-10-22T10:52:37.926Z,17.28
2022-10-22T10:55:20.115Z,17.38
2022-10-22T10:58:00.918Z,17.56
2022-10-22T11:00:40.481Z,17.75
2022-10-22T11:03:36.141Z,17.80
2022-10-22T11:06:11.299Z,17.74
2022-10-22T11:08:45.871Z,17.63
2022-10-22T11:11:22.648Z,17.52
2022-10-22T11:13:59.070Z,17.40
2022-10-22T11:16:36.692Z,17.30
2022-10-22T11:19:22.585Z,17.20
2022-10-22T11:22:05.181Z,17.10
2022-10-22T11:24:44.369Z,17.00
2022-10-22T11:27:31.062Z,16.90
2022-10-22T11:30:07.281Z,16.83
2022-10-22T11:32:39.877Z,16.79
2022-10-22T11:35:17.118Z,16.76
2022-10-22T11:37:49.144Z,16.73
2022-10-22T11:40:22.512Z,16.71
2022-10-22T11:42:56.570Z,16.69
2022-10-22T11:45:35.261Z,16.70
2022-10-22T11:48:20.004Z,16.72
2022-10-22T11:50:56.805Z,16.74
2022-10-22T11:53:34.826Z,16.76
2022-10-22T11:56:26.568Z,16.70
2022-10-22T11:58:58.219Z,16.63
2022-10-22T12:01:40.914Z,16.58
2022-10-22T12:04:24.336Z,16.54
2022-10-22T12:07:00.980Z,16.49
2022-10-22T12:09:34.376Z,16.45
2022-10-22T12:12:16.743Z,16.42
2022-10-22T12:14:59.317Z,16.37
2022-10-22T12:17:32.245Z,16.29
2022-10-22T12:20:09.265Z,16.25
2022-10-22T12:22:41.226Z,16.27
2022-10-22T12:25:23.045Z,16.33
2022-10-22T12:27:57.181Z,16.38
2022-10-22T12:30:30.678Z,16.32
2022-10-22T12:33:03.436Z,16.31
2022-10-22T12:35:36.708Z,16.36
2022-10-22T12:38:16.657Z,16.39
2022-10-22T12:40:48.904Z,16.45
2022-10-22T12:43:24.804Z,16.48
2022-10-22T12:45:55.919Z,16.51
2022-10-22T12:48:29.637Z,16.57
2022-10-22T12:51:02.569Z,16.62
2022-10-22T12:53:37.782Z,16.65
2022-10-22T12:56:12.911Z,16.70
2022-10-22T12:58:46.850Z,16.76
2022-10-22T13:01:19.362Z,16.80
2022-10-22T13:03:51.642Z,16.84
2022-10-22T13:06:26.068Z,16.88
2022-10-22T13:09:07.579Z,16.90
2022-10-22T13:11:42.304Z,16.92
2022-10-22T13:14:29.068Z,16.95
2022-10-22T13:17:18.215Z,17.00
2022-10-22T13:20:05.288Z,17.06
2022-10-22T13:22:38.186Z,17.14
2022-10-22T13:25:26.283Z,17.19
2022-10-22T13:27:59.145Z,17.23
2022-10-22T13:30:31.780Z,17.28
2022-10-22T13:33:04.503Z,17.30
2022-10-22T13:35:37.976Z,17.32
2022-10-22T13:38:20.082Z,17.33
2022-10-22T13:40:51.310Z,17.35
2022-10-22T13:43:22.575Z,17.36
2022-10-22T13:45:58.515Z,17.37
2022-10-22T13:48:31.580Z,17.35
2022-10-22T13:51:02.256Z,17.39
2022-10-22T13:53:33.495Z,17.41
2022-10-22T13:56:04.150Z,17.41
2022-10-22T13:58:34.900Z,17.42
2022-10-22T14:01:08.897Z,17.42
2022-10-22T14:03:40.819Z,17.42
2022-10-22T14:06:15.854Z,17.36
2022-10-22T14:08:50.611Z,17.41
2022-10-22T14:11:21.512Z,17.40
2022-10-22T14:13:52.219Z,17.41
2022-10-22T14:16:25.240Z,17.39
2022-10-22T14:18:56.886Z,17.38
2022-10-22T14:21:30.096Z,17.38
2022-10-22T14:24:00.670Z,17.38
2022-10-22T14:26:35.242Z,17.36
2022-10-22T14:29:10.277Z,17.33
2022-10-22T14:31:44.526Z,17.30
2022-10-22T14:34:17.035Z,17.28
2022-10-22T14:36:47.697Z,17.26
2022-10-22T14:39:19.129Z,17.25
2022-10-22T14:41:50.369Z,17.24
2022-10-22T14:44:21.061Z,17.22
2022-10-22T14:46:54.410Z,17.20
2022-10-22T14:49:25.064Z,17.18
2022-10-22T14:51:55.719Z,17.15
2022-10-22T14:54:26.476Z,17.12
2022-10-22T14:56:57.260Z,17.10
2022-10-22T14:59:28.107Z,17.05
2022-10-22T15:01:58.854Z,17.02
2022-10-22T15:04:30.622Z,17.00
2022-10-22T15:07:01.335Z,16.97
2022-10-22T15:09:32.759Z,16.96
2022-10-22T15:12:03.435Z,16.94
2022-10-22T15:14:34.071Z,16.93
2022-10-22T15:17:04.745Z,16.92
2022-10-22T15:19:35.436Z,16.91
2022-10-22T15:22:06.870Z,16.89
2022-10-22T15:24:37.626Z,16.87
2022-10-22T15:27:08.843Z,16.83
2022-10-22T15:29:39.713Z,16.78
2022-10-22T15:32:11.382Z,16.73
2022-10-22T15:34:42.864Z,16.68
2022-10-22T15:37:15.111Z,16.63
2022-10-22T15:39:45.795Z,16.57
2022-10-22T15:42:17.181Z,16.50
2022-10-22T15:44:47.929Z,16.43
2022-10-22T15:47:18.750Z,16.36
2022-10-22T15:49:49.508Z,16.30
2022-10-22T15:52:21.576Z,16.23
2022-10-22T15:54:52.336Z,16.17
2022-10-22T15:57:23.240Z,16.09
2022-10-22T15:59:53.911Z,16.02
2022-10-22T16:02:24.648Z,15.95
2022-10-22T16:04:55.411Z,15.88
2022-10-22T16:07:26.086Z,15.79
2022-10-22T16:10:00.239Z,15.75
2022-10-22T16:12:30.947Z,15.68
2022-10-22T16:15:01.595Z,15.60
2022-10-22T16:17:32.300Z,15.53
2022-10-22T16:20:03.039Z,15.46
2022-10-22T16:22:34.456Z,15.36
2022-10-22T16:25:05.771Z,15.34
2022-10-22T16:27:36.468Z,15.29
2022-10-22T16:30:09.210Z,15.25
2022-10-22T16:32:40.098Z,15.21
2022-10-22T16:35:12.392Z,15.17
2022-10-22T16:37:43.173Z,15.12
2022-10-22T16:40:15.764Z,15.07
2022-10-22T16:42:45.166Z,15.05
2022-10-22T16:47:52.000Z,15.06
2022-10-22T16:50:22.613Z,15.06
2022-10-22T16:52:53.286Z,15.11
2022-10-22T16:55:24.222Z,15.13
2022-10-22T16:57:55.254Z,15.12
2022-10-22T17:00:26.204Z,15.14
2022-10-22T17:02:57.240Z,15.17
2022-10-22T17:05:28.183Z,15.18
2022-10-22T17:07:59.030Z,15.19
2022-10-22T17:10:29.729Z,15.18
2022-10-22T17:13:00.542Z,15.16
2022-10-22T17:15:31.545Z,15.15
2022-10-22T17:18:04.106Z,15.10
2022-10-22T17:20:34.926Z,15.06
2022-10-22T17:23:05.948Z,15.04
2022-10-22T17:25:44.825Z,15.05
2022-10-22T17:28:15.525Z,15.01
2022-10-22T17:30:46.279Z,14.99
2022-10-22T17:33:16.977Z,14.97
2022-10-22T17:35:49.442Z,14.96
2022-10-22T17:38:18.682Z,14.94
2022-10-22T17:40:49.403Z,14.85
2022-10-22T17:43:20.241Z,14.80
2022-10-22T17:45:50.876Z,14.79
2022-10-22T17:48:21.692Z,14.76
2022-10-22T17:50:54.631Z,14.76
2022-10-22T17:53:27.930Z,14.75
2022-10-22T17:56:07.130Z,14.69
2022-10-22T17:58:38.454Z,14.62
2022-10-22T18:01:16.890Z,14.56
2022-10-22T18:03:46.055Z,14.53
2022-10-22T18:06:17.202Z,14.50
2022-10-22T18:08:48.128Z,14.50
2022-10-22T18:11:22.791Z,14.50
2022-10-22T18:13:55.117Z,14.45
2022-10-22T18:16:26.084Z,14.39
2022-10-22T18:18:58.371Z,14.32
2022-10-22T18:21:30.830Z,14.27
2022-10-22T18:24:00.369Z,14.16
2022-10-22T18:26:31.321Z,14.07
2022-10-22T18:29:02.137Z,14.01
2022-10-22T18:31:32.940Z,13.95
2022-10-22T18:34:03.594Z,13.91
2022-10-22T18:36:34.212Z,13.89
2022-10-22T18:39:05.742Z,13.86
2022-10-22T18:41:36.991Z,13.85
2022-10-22T18:44:08.664Z,13.85
2022-10-22T18:46:40.270Z,13.83
2022-10-22T18:49:14.532Z,13.82
2022-10-22T18:51:46.423Z,13.83
2022-10-22T18:54:23.231Z,13.83
2022-10-22T18:56:59.382Z,13.84
2022-10-22T18:59:33.304Z,13.82
2022-10-22T19:02:04.225Z,13.74
2022-10-22T19:04:37.085Z,13.68
2022-10-22T19:09:40.809Z,13.58
2022-10-22T19:12:15.431Z,13.57
2022-10-22T19:14:46.221Z,13.61
2022-10-22T19:17:16.943Z,13.64
2022-10-22T19:19:48.127Z,13.65
2022-10-22T19:22:19.008Z,13.66
2022-10-22T19:24:51.453Z,13.65
2022-10-22T19:27:22.174Z,13.61
2022-10-22T19:29:52.901Z,13.55
2022-10-22T19:32:26.282Z,13.46
2022-10-22T19:34:59.641Z,13.38
2022-10-22T19:37:30.435Z,13.32
2022-10-22T19:40:01.147Z,13.26
2022-10-22T19:42:31.940Z,13.22
2022-10-22T19:45:02.907Z,13.16
2022-10-22T19:47:33.576Z,13.11
2022-10-22T19:50:04.474Z,13.07
2022-10-22T19:52:35.843Z,13.04
2022-10-22T19:55:10.054Z,13.02
2022-10-22T19:57:41.014Z,12.96
2022-10-22T20:00:14.189Z,12.91
2022-10-22T20:02:45.974Z,12.89
2022-10-22T20:05:16.717Z,12.91
2022-10-22T20:07:47.715Z,12.95
2022-10-22T20:10:18.654Z,13.02
2022-10-22T20:12:49.377Z,13.11
2022-10-22T20:15:21.554Z,13.20
2022-10-22T20:17:52.209Z,13.25
2022-10-22T20:20:26.348Z,13.28
2022-10-22T20:22:57.324Z,13.29
2022-10-22T20:25:28.110Z,13.32
2022-10-22T20:27:58.900Z,13.33
2022-10-22T20:30:29.619Z,13.33
2022-10-22T20:33:00.485Z,13.30
2022-10-22T20:35:31.242Z,13.27
2022-10-22T20:38:01.983Z,13.23
2022-10-22T20:40:33.277Z,13.20
2022-10-22T20:43:04.030Z,13.17
2022-10-22T20:45:36.138Z,13.12
2022-10-22T20:48:07.934Z,13.08
2022-10-22T20:50:39.520Z,13.05
2022-10-22T20:53:13.429Z,13.01
2022-10-22T20:55:47.246Z,12.99
2022-10-22T20:58:19.589Z,12.95
2022-10-22T21:00:52.031Z,12.91
2022-10-22T21:03:22.862Z,12.86
2022-10-22T21:05:53.764Z,12.81
2022-10-22T21:08:24.606Z,12.75
2022-10-22T21:10:55.428Z,12.71
2022-10-22T21:13:26.104Z,12.71
2022-10-22T21:15:56.862Z,12.72
2022-10-22T21:18:27.822Z,12.72
2022-10-22T21:21:02.711Z,12.70
2022-10-22T21:23:33.970Z,12.70
2022-10-22T21:26:04.669Z,12.68
2022-10-22T21:28:36.885Z,12.67
2022-10-22T21:31:09.916Z,12.67
2022-10-22T21:33:41.404Z,12.65
2022-10-22T21:36:12.558Z,12.64
2022-10-22T21:38:43.275Z,12.55
2022-10-22T21:41:16.308Z,12.57
2022-10-22T21:43:48.267Z,12.58
2022-10-22T21:46:21.770Z,12.61
2022-10-22T21:48:55.814Z,12.65
2022-10-22T21:51:27.334Z,12.66
2022-10-22T21:53:58.027Z,12.74
2022-10-22T21:56:32.509Z,12.77
2022-10-22T21:59:04.237Z,12.79
2022-10-22T22:01:35.693Z,12.80
2022-10-22T22:04:07.358Z,12.84
2022-10-22T22:06:37.957Z,12.85
2022-10-22T22:09:08.697Z,12.84
2022-10-22T22:11:39.467Z,12.79
2022-10-22T22:14:10.189Z,12.76
2022-10-22T22:16:41.014Z,12.73
2022-10-22T22:19:13.477Z,12.73
2022-10-22T22:21:44.283Z,12.72
2022-10-22T22:24:15.551Z,12.70
2022-10-22T22:26:46.608Z,12.65
2022-10-22T22:29:17.273Z,12.59
2022-10-22T22:31:48.114Z,12.55
2022-10-22T22:34:19.897Z,12.49
2022-10-22T22:36:50.671Z,12.41
2022-10-22T22:39:23.660Z,12.37
2022-10-22T22:41:54.760Z,12.33
2022-10-22T22:44:25.620Z,12.25
2022-10-22T22:46:56.201Z,12.17
2022-10-22T22:49:26.897Z,12.16
2022-10-22T22:51:57.504Z,12.13
2022-10-22T22:54:28.399Z,12.09
2022-10-22T22:56:59.594Z,12.02
2022-10-22T22:59:30.177Z,11.99
2022-10-22T23:02:01.221Z,11.98
2022-10-22T23:04:31.974Z,11.96
2022-10-22T23:07:02.837Z,11.95
2022-10-22T23:09:33.458Z,11.94
2022-10-22T23:12:05.028Z,11.93
2022-10-22T23:14:35.681Z,11.87
2022-10-22T23:17:06.259Z,11.80
2022-10-22T23:19:36.995Z,11.77
2022-10-22T23:22:07.705Z,11.72
2022-10-22T23:24:38.873Z,11.70
2022-10-22T23:27:11.043Z,11.68
2022-10-22T23:29:41.760Z,11.66
2022-10-22T23:32:15.575Z,11.62
2022-10-22T23:34:46.188Z,11.60
2022-10-22T23:37:16.867Z,11.59
2022-10-22T23:39:47.478Z,11.59
2022-10-22T23:42:18.149Z,11.59
2022-10-22T23:44:48.944Z,11.61
2022-10-22T23:47:19.633Z,11.62
2022-10-22T23:49:50.383Z,11.62
2022-10-22T23:52:21.128Z,11.62
2022-10-22T23:54:52.456Z,11.63
2022-10-22T23:57:24.061Z,11.63
2022-10-22T23:59:55.838Z,11.64
